createdAt,value
2019-03-10T00:01:43.410Z,100335.30
2019-03-10T00:04:10.579Z,100315.30
2019-03-10T00:06:38.196Z,100328.35
2019-03-10T00:09:46.525Z,100331.87
2019-03-10T00:12:13.948Z,100327.92
2019-03-10T00:14:41.026Z,100331.87
2019-03-10T00:17:08.562Z,100332.30
2019-03-10T00:19:36.818Z,100334.92
2019-03-10T00:22:45.842Z,100332.31
2019-03-10T00:25:13.013Z,100331.89
2019-03-10T00:27:40.084Z,100339.30
2019-03-10T00:30:07.350Z,100343.16
2019-03-10T00:32:34.429Z,100337.94
2019-03-10T00:35:01.502Z,100335.78
2019-03-10T00:37:28.635Z,100349.19
2019-03-10T00:40:34.625Z,100344.41
2019-03-10T00:43:40.833Z,100358.31
2019-03-10T00:46:57.280Z,100355.27
2019-03-10T00:50:03.190Z,100357.01
2019-03-10T00:52:52.027Z,100342.30
2019-03-10T00:55:19.145Z,100348.37
2019-03-10T00:57:46.227Z,100353.54
2019-03-10T01:00:15.559Z,100355.71
2019-03-10T01:02:42.757Z,100352.72
2019-03-10T01:05:09.980Z,100350.97
2019-03-10T01:07:37.535Z,100347.08
2019-03-10T01:10:05.061Z,100348.42
2019-03-10T01:12:32.132Z,100336.22
2019-03-10T01:14:59.201Z,100338.83
2019-03-10T01:17:26.528Z,100340.57
2019-03-10T01:19:53.621Z,100327.54
2019-03-10T01:22:20.896Z,100331.45
2019-03-10T01:24:48.022Z,100326.72
2019-03-10T01:27:15.126Z,100327.98
2019-03-10T01:29:42.193Z,100331.48
2019-03-10T01:32:36.871Z,100321.02
2019-03-10T01:35:42.853Z,100316.29
2019-03-10T01:38:10.000Z,100320.62
2019-03-10T01:40:37.652Z,100315.04
2019-03-10T01:43:04.722Z,100305.06
2019-03-10T01:45:31.867Z,100305.92
2019-03-10T01:47:59.409Z,100297.25
2019-03-10T01:50:27.949Z,100299.42
2019-03-10T01:52:55.067Z,100300.67
2019-03-10T01:55:22.149Z,100295.94
2019-03-10T01:57:49.231Z,100294.64
2019-03-10T02:00:16.801Z,100294.64
2019-03-10T02:02:44.405Z,100299.86
2019-03-10T02:05:52.432Z,100298.17
2019-03-10T02:11:09.459Z,100293.02
2019-03-10T02:13:37.187Z,100296.97
2019-03-10T02:16:04.477Z,100290.02
2019-03-10T02:18:31.634Z,100293.93
2019-03-10T02:20:58.802Z,100288.77
2019-03-10T02:23:25.869Z,100288.80
2019-03-10T02:25:53.028Z,100283.64
2019-03-10T02:28:20.105Z,100282.34
2019-03-10T02:30:47.209Z,100281.05
2019-03-10T02:33:14.360Z,100281.95
2019-03-10T02:35:41.889Z,100281.55
2019-03-10T02:38:09.258Z,100286.28
2019-03-10T02:40:36.456Z,100275.01
2019-03-10T02:43:03.564Z,100271.11
2019-03-10T02:45:30.700Z,100268.03
2019-03-10T02:47:58.237Z,100268.06
2019-03-10T02:50:25.349Z,100263.26
2019-03-10T02:52:52.408Z,100259.39
2019-03-10T02:55:19.546Z,100251.55
2019-03-10T02:57:47.051Z,100253.72
2019-03-10T03:00:14.510Z,100246.34
2019-03-10T03:02:42.057Z,100239.83
2019-03-10T03:05:09.437Z,100227.73
2019-03-10T03:07:37.115Z,100230.68
2019-03-10T03:10:04.553Z,100229.38
2019-03-10T03:12:31.670Z,100229.38
2019-03-10T03:14:58.748Z,100228.50
2019-03-10T03:17:26.171Z,100218.52
2019-03-10T03:19:53.264Z,100227.16
2019-03-10T03:22:20.341Z,100215.45
2019-03-10T03:24:48.005Z,100209.38
2019-03-10T03:27:15.486Z,100207.19
2019-03-10T03:29:42.583Z,100204.98
2019-03-10T03:32:29.616Z,100196.71
2019-03-10T03:34:56.746Z,100189.73
2019-03-10T03:37:23.953Z,100191.02
2019-03-10T03:39:52.749Z,100191.91
2019-03-10T03:42:19.966Z,100201.94
2019-03-10T03:44:47.051Z,100189.30
2019-03-10T03:47:14.212Z,100195.36
2019-03-10T03:49:41.744Z,100194.05
2019-03-10T03:52:09.018Z,100190.59
2019-03-10T03:54:36.363Z,100199.65
2019-03-10T03:57:03.442Z,100190.15
2019-03-10T03:59:30.737Z,100204.90
2019-03-10T04:02:17.890Z,100204.47
2019-03-10T04:04:44.984Z,100201.87
2019-03-10T04:07:12.088Z,100206.66
2019-03-10T04:09:39.313Z,100208.81
2019-03-10T04:12:06.422Z,100211.41
2019-03-10T04:14:33.524Z,100215.31
2019-03-10T04:17:01.083Z,100209.24
2019-03-10T04:19:28.148Z,100211.36
2019-03-10T04:21:55.691Z,100213.96
2019-03-10T04:24:22.849Z,100199.25
2019-03-10T04:26:50.244Z,100207.44
2019-03-10T04:29:17.635Z,100208.33
2019-03-10T04:31:44.743Z,100203.53
2019-03-10T04:34:11.822Z,100205.34
2019-03-10T04:36:38.910Z,100190.59
2019-03-10T04:39:06.544Z,100201.45
2019-03-10T04:41:34.117Z,100202.31
2019-03-10T04:44:01.607Z,100203.19
2019-03-10T04:46:29.239Z,100201.93
2019-03-10T04:48:56.301Z,100199.78
2019-03-10T04:51:23.743Z,100194.19
2019-03-10T04:53:50.880Z,100193.81
2019-03-10T04:56:37.436Z,100198.58
2019-03-10T04:59:04.351Z,100205.12
2019-03-10T05:01:31.403Z,100199.92
2019-03-10T05:03:58.275Z,100203.34
2019-03-10T05:06:25.367Z,100201.56
2019-03-10T05:08:52.113Z,100205.46
2019-03-10T05:11:19.011Z,100204.10
2019-03-10T05:13:45.732Z,100198.90
2019-03-10T05:16:12.433Z,100210.13
2019-03-10T05:18:39.421Z,100213.20
2019-03-10T05:21:06.257Z,100201.44
2019-03-10T05:23:38.467Z,100192.77
2019-03-10T05:26:05.309Z,100190.60
2019-03-10T05:28:33.434Z,100190.22
2019-03-10T05:31:00.484Z,100194.56
2019-03-10T05:33:27.598Z,100198.08
2019-03-10T05:35:54.807Z,100191.96
2019-03-10T05:38:21.941Z,100195.85
2019-03-10T05:40:48.810Z,100183.33
2019-03-10T05:43:15.722Z,100177.70
2019-03-10T05:45:42.794Z,100180.73
2019-03-10T05:48:09.636Z,100177.26
2019-03-10T05:50:36.537Z,100178.99
2019-03-10T05:53:03.246Z,100171.56
2019-03-10T05:55:30.113Z,100168.02
2019-03-10T05:57:56.970Z,100165.85
2019-03-10T06:00:23.624Z,100165.85
2019-03-10T06:02:50.500Z,100162.86
2019-03-10T06:05:17.435Z,100163.19
2019-03-10T06:08:04.532Z,100160.19
2019-03-10T06:10:31.757Z,100152.33
2019-03-10T06:13:11.046Z,100150.09
2019-03-10T06:15:38.331Z,100146.23
2019-03-10T06:18:13.491Z,100138.36
2019-03-10T06:20:35.850Z,100142.27
2019-03-10T06:23:02.812Z,100141.38
2019-03-10T06:25:30.281Z,100127.06
2019-03-10T06:27:57.170Z,100122.27
2019-03-10T06:30:24.586Z,100120.83
2019-03-10T06:32:51.328Z,100118.13
2019-03-10T06:35:17.966Z,100115.51
2019-03-10T06:37:44.834Z,100115.77
2019-03-10T06:40:11.789Z,100123.91
2019-03-10T06:42:38.542Z,100119.81
2019-03-10T06:45:46.382Z,100115.75
2019-03-10T06:48:13.000Z,100113.83
2019-03-10T06:50:39.727Z,100105.97
2019-03-10T06:53:07.096Z,100109.32
2019-03-10T06:55:33.819Z,100112.67
2019-03-10T06:58:00.450Z,100107.04
2019-03-10T07:00:27.752Z,100100.17
2019-03-10T07:02:55.032Z,100101.34
2019-03-10T07:05:22.077Z,100103.11
2019-03-10T07:07:48.970Z,100099.08
2019-03-10T07:10:15.912Z,100099.02
2019-03-10T07:12:42.635Z,100105.03
2019-03-10T07:15:09.966Z,100097.02
2019-03-10T07:17:36.608Z,100090.11
2019-03-10T07:20:04.903Z,100089.13
2019-03-10T07:22:31.568Z,100085.77
2019-03-10T07:24:58.304Z,100078.07
2019-03-10T07:30:35.182Z,100081.47
2019-03-10T07:33:18.295Z,100077.72
2019-03-10T07:36:05.895Z,100077.06
2019-03-10T07:38:43.828Z,100080.03
2019-03-10T07:41:30.520Z,100069.81
2019-03-10T07:44:03.076Z,100070.98
2019-03-10T07:46:49.449Z,100068.03
2019-03-10T07:49:36.070Z,100070.23
2019-03-10T07:52:41.993Z,100065.02
2019-03-10T07:55:28.643Z,100062.62
2019-03-10T07:58:15.022Z,100059.90
2019-03-10T08:01:01.279Z,100052.69
2019-03-10T08:03:47.572Z,100047.10
2019-03-10T08:06:21.360Z,100047.10
2019-03-10T08:09:07.767Z,100037.78
2019-03-10T08:11:54.288Z,100023.94
2019-03-10T08:14:38.052Z,100025.27
2019-03-10T08:17:10.976Z,100018.50
2019-03-10T08:19:57.654Z,100018.45
2019-03-10T08:22:44.293Z,100011.45
2019-03-10T08:25:30.697Z,100009.63
2019-03-10T08:28:16.933Z,100007.36
2019-03-10T08:31:03.363Z,100002.53
2019-03-10T08:33:49.955Z,99994.88
2019-03-10T08:36:36.585Z,99987.62
2019-03-10T08:39:44.779Z,99981.20
2019-03-10T08:42:31.187Z,99969.30
2019-03-10T08:45:03.508Z,99961.95
2019-03-10T08:47:49.786Z,99954.42
2019-03-10T08:50:22.248Z,99952.25
2019-03-10T08:52:54.574Z,99954.80
2019-03-10T08:55:41.101Z,99947.95
2019-03-10T08:58:27.516Z,99953.16
2019-03-10T09:01:13.856Z,99956.19
2019-03-10T09:03:50.034Z,99945.19
2019-03-10T09:06:25.432Z,99941.73
2019-03-10T09:09:12.130Z,99942.45
2019-03-10T09:11:58.383Z,99936.64
2019-03-10T09:14:44.767Z,99935.34
2019-03-10T09:17:31.509Z,99926.15
2019-03-10T09:20:17.794Z,99922.95
2019-03-10T09:22:52.569Z,99912.72
2019-03-10T09:25:39.007Z,99901.19
2019-03-10T09:28:25.683Z,99895.54
2019-03-10T09:31:12.331Z,99889.44
2019-03-10T09:33:58.666Z,99887.41
2019-03-10T09:36:29.771Z,99888.78
2019-03-10T09:39:16.005Z,99886.83
2019-03-10T09:42:02.517Z,99872.47
2019-03-10T09:44:49.088Z,99873.43
2019-03-10T09:47:35.359Z,99860.30
2019-03-10T09:50:21.817Z,99856.48
2019-03-10T09:53:08.444Z,99841.73
2019-03-10T09:55:54.790Z,99844.84
2019-03-10T09:58:29.510Z,99851.73
2019-03-10T10:01:15.857Z,99843.07
2019-03-10T10:04:21.775Z,99837.88
2019-03-10T10:07:08.287Z,99837.28
2019-03-10T10:09:54.682Z,99831.17
2019-03-10T10:12:41.012Z,99825.69
2019-03-10T10:15:27.834Z,99807.57
2019-03-10T10:18:14.139Z,99808.98
2019-03-10T10:21:00.423Z,99803.30
2019-03-10T10:23:34.870Z,99796.86
2019-03-10T10:26:17.683Z,99792.27
2019-03-10T10:29:04.005Z,99787.38
2019-03-10T10:31:50.637Z,99773.34
2019-03-10T10:34:36.875Z,99773.44
2019-03-10T10:37:23.266Z,99763.89
2019-03-10T10:40:09.508Z,99757.73
2019-03-10T10:42:55.884Z,99754.96
2019-03-10T10:45:42.227Z,99743.75
2019-03-10T10:48:28.627Z,99733.81
2019-03-10T10:51:14.972Z,99734.58
2019-03-10T10:54:01.638Z,99730.44
2019-03-10T10:56:47.878Z,99731.30
2019-03-10T10:59:34.299Z,99729.64
2019-03-10T11:02:10.213Z,99720.59
2019-03-10T11:04:56.606Z,99723.66
2019-03-10T11:07:43.410Z,99715.06
2019-03-10T11:10:30.085Z,99713.67
2019-03-10T11:13:07.265Z,99721.98
2019-03-10T11:15:40.935Z,99707.44
2019-03-10T11:18:14.318Z,99700.97
2019-03-10T11:21:00.791Z,99692.20
2019-03-10T11:23:34.522Z,99682.63
2019-03-10T11:26:20.919Z,99678.41
2019-03-10T11:29:07.652Z,99674.53
2019-03-10T11:31:54.070Z,99677.76
2019-03-10T11:34:37.021Z,99676.83
2019-03-10T11:37:23.440Z,99678.70
2019-03-10T11:40:10.262Z,99673.51
2019-03-10T11:45:50.030Z,99660.73
2019-03-10T11:48:36.647Z,99658.36
2019-03-10T11:51:23.024Z,99657.91
2019-03-10T11:56:50.309Z,99644.73
2019-03-10T11:59:21.082Z,99649.08
2019-03-10T12:01:55.265Z,99624.97
2019-03-10T12:04:33.078Z,99621.38
2019-03-10T12:07:15.001Z,99615.77
2019-03-10T12:09:41.785Z,99608.68
2019-03-10T12:12:08.793Z,99599.34
2019-03-10T12:14:35.417Z,99592.27
2019-03-10T12:17:02.192Z,99584.91
2019-03-10T12:19:28.929Z,99574.39
2019-03-10T12:21:56.244Z,99586.30
2019-03-10T12:24:24.659Z,99576.41
2019-03-10T12:26:51.400Z,99569.66
2019-03-10T12:29:18.412Z,99557.02
2019-03-10T12:31:45.098Z,99548.11
2019-03-10T12:34:11.864Z,99535.91
2019-03-10T12:36:38.666Z,99531.70
2019-03-10T12:39:07.103Z,99526.97
2019-03-10T12:41:33.726Z,99510.12
2019-03-10T12:44:00.340Z,99502.80
2019-03-10T12:46:27.125Z,99498.09
2019-03-10T12:48:53.854Z,99497.88
2019-03-10T12:51:21.176Z,99494.25
2019-03-10T12:53:48.657Z,99498.29
2019-03-10T12:56:15.379Z,99493.50
2019-03-10T12:58:42.097Z,99492.70
2019-03-10T13:01:08.866Z,99482.72
2019-03-10T13:03:35.840Z,99488.66
2019-03-10T13:06:02.680Z,99481.78
2019-03-10T13:08:29.451Z,99466.90
2019-03-10T13:10:56.188Z,99453.41
2019-03-10T13:13:23.095Z,99436.06
2019-03-10T13:15:49.924Z,99432.63
2019-03-10T13:18:16.791Z,99432.75
2019-03-10T13:20:43.738Z,99446.19
2019-03-10T13:23:10.612Z,99453.69
2019-03-10T13:25:37.349Z,99451.41
2019-03-10T13:28:04.073Z,99452.47
2019-03-10T13:30:30.877Z,99446.34
2019-03-10T13:32:57.832Z,99435.17
2019-03-10T13:35:24.568Z,99434.36
2019-03-10T13:37:51.381Z,99422.78
2019-03-10T13:40:18.240Z,99425.89
2019-03-10T13:42:45.232Z,99416.05
2019-03-10T13:45:12.233Z,99409.91
2019-03-10T13:47:38.962Z,99401.11
2019-03-10T13:50:07.724Z,99394.39
2019-03-10T13:52:34.983Z,99386.17
2019-03-10T13:55:01.819Z,99385.31
2019-03-10T13:57:28.538Z,99379.86
2019-03-10T13:59:55.329Z,99370.77
2019-03-10T14:02:22.057Z,99367.47
2019-03-10T14:04:49.249Z,99363.86
2019-03-10T14:07:16.015Z,99356.88
2019-03-10T14:09:42.757Z,99358.55
2019-03-10T14:12:09.727Z,99352.87
2019-03-10T14:14:36.874Z,99347.81
2019-03-10T14:17:03.967Z,99340.70
2019-03-10T14:19:31.082Z,99336.17
2019-03-10T14:21:57.896Z,99320.86
2019-03-10T14:24:24.675Z,99306.38
2019-03-10T14:26:51.407Z,99293.38
2019-03-10T14:29:18.369Z,99288.28
2019-03-10T14:31:45.093Z,99268.42
2019-03-10T14:34:11.717Z,99265.75
2019-03-10T14:36:38.560Z,99271.25
2019-03-10T14:39:24.930Z,99259.05
2019-03-10T14:41:52.108Z,99251.38
2019-03-10T14:44:19.201Z,99241.06
2019-03-10T14:46:46.469Z,99249.06
2019-03-10T14:49:22.698Z,99252.54
2019-03-10T14:51:41.796Z,99245.27
2019-03-10T14:54:08.419Z,99243.80
2019-03-10T14:56:35.208Z,99247.66
2019-03-10T14:59:02.043Z,99239.89
2019-03-10T15:01:29.348Z,99224.72
2019-03-10T15:03:56.421Z,99228.91
2019-03-10T15:06:23.343Z,99231.57
2019-03-10T15:08:50.190Z,99220.59
2019-03-10T15:11:16.967Z,99219.14
2019-03-10T15:13:43.598Z,99202.99
2019-03-10T15:16:10.319Z,99196.09
2019-03-10T15:18:37.065Z,99187.63
2019-03-10T15:21:04.058Z,99168.52
2019-03-10T15:23:30.689Z,99164.20
2019-03-10T15:25:57.621Z,99163.92
2019-03-10T15:28:24.730Z,99166.04
2019-03-10T15:30:51.460Z,99162.13
2019-03-10T15:33:18.351Z,99151.77
2019-03-10T15:35:45.078Z,99168.69
2019-03-10T15:38:12.189Z,99162.95
2019-03-10T15:40:38.959Z,99162.49
2019-03-10T15:43:06.046Z,99165.68
2019-03-10T15:45:32.789Z,99170.81
2019-03-10T15:47:59.685Z,99153.59
2019-03-10T15:50:26.399Z,99147.93
2019-03-10T15:52:53.208Z,99138.94
2019-03-10T15:55:20.007Z,99124.63
2019-03-10T15:57:50.619Z,99125.48
2019-03-10T16:00:16.366Z,99129.63
2019-03-10T16:02:43.134Z,99124.05
2019-03-10T16:05:10.022Z,99114.43
2019-03-10T16:07:36.757Z,99109.66
2019-03-10T16:10:04.518Z,99100.88
2019-03-10T16:12:31.134Z,99091.49
2019-03-10T16:14:57.871Z,99084.66
2019-03-10T16:17:24.651Z,99085.83
2019-03-10T16:19:51.386Z,99085.13
2019-03-10T16:22:18.008Z,99080.81
2019-03-10T16:24:44.689Z,99081.05
2019-03-10T16:27:11.403Z,99081.55
2019-03-10T16:29:38.149Z,99084.72
2019-03-10T16:32:04.934Z,99081.91
2019-03-10T16:34:31.983Z,99081.80
2019-03-10T16:36:58.607Z,99076.98
2019-03-10T16:39:25.458Z,99089.94
2019-03-10T16:41:52.083Z,99094.95
2019-03-10T16:44:18.717Z,99093.28
2019-03-10T16:46:45.517Z,99094.06
2019-03-10T16:49:12.239Z,99097.12
2019-03-10T16:51:38.971Z,99093.09
2019-03-10T16:54:05.768Z,99085.58
2019-03-10T16:56:32.632Z,99084.77
2019-03-10T16:59:00.194Z,99084.77
2019-03-10T17:01:27.074Z,99085.33
2019-03-10T17:03:53.819Z,99076.20
2019-03-10T17:06:20.630Z,99072.69
2019-03-10T17:08:47.406Z,99070.20
2019-03-10T17:11:14.259Z,99075.79
2019-03-10T17:14:20.184Z,99067.64
2019-03-10T17:16:47.310Z,99078.44
2019-03-10T17:19:33.911Z,99072.20
2019-03-10T17:22:00.857Z,99056.22
2019-03-10T17:24:47.542Z,99053.98
2019-03-10T17:27:14.272Z,99054.03
2019-03-10T17:29:57.792Z,99041.11
2019-03-10T17:32:25.403Z,99033.27
2019-03-10T17:34:53.357Z,99042.37
2019-03-10T17:37:20.531Z,99052.63
2019-03-10T17:39:47.569Z,99078.08
2019-03-10T17:42:16.124Z,99079.23
2019-03-10T17:44:45.167Z,99059.45
2019-03-10T17:47:13.839Z,99060.34
2019-03-10T17:49:42.198Z,99049.02
2019-03-10T17:52:14.518Z,99038.45
2019-03-10T17:54:58.410Z,99052.59
2019-03-10T17:57:26.139Z,99063.44
2019-03-10T17:59:53.241Z,99072.82
2019-03-10T18:02:20.332Z,99074.45
2019-03-10T18:04:48.919Z,99073.67
2019-03-10T18:07:16.830Z,99076.56
2019-03-10T18:09:43.975Z,99076.60
2019-03-10T18:12:11.434Z,99069.95
2019-03-10T18:14:39.580Z,99072.97
2019-03-10T18:17:07.122Z,99081.09
2019-03-10T18:19:34.856Z,99078.71
2019-03-10T18:22:02.010Z,99078.94
2019-03-10T18:24:29.543Z,99086.89
2019-03-10T18:27:37.520Z,99092.50
2019-03-10T18:30:06.207Z,99087.70
2019-03-10T18:32:32.872Z,99090.12
2019-03-10T18:34:59.703Z,99094.25
2019-03-10T18:37:26.587Z,99105.73
2019-03-10T18:39:53.498Z,99115.91
2019-03-10T18:42:20.540Z,99128.62
2019-03-10T18:44:48.679Z,99156.63
2019-03-10T18:47:15.688Z,99154.37
2019-03-10T18:49:43.188Z,99156.64
2019-03-10T18:52:09.963Z,99160.39
2019-03-10T18:54:36.575Z,99158.26
2019-03-10T18:57:03.632Z,99164.59
2019-03-10T18:59:30.268Z,99163.31
2019-03-10T19:01:56.905Z,99170.75
2019-03-10T19:04:24.161Z,99167.38
2019-03-10T19:06:50.877Z,99168.66
2019-03-10T19:09:17.632Z,99179.08
2019-03-10T19:11:44.752Z,99173.52
2019-03-10T19:14:11.379Z,99185.50
2019-03-10T19:16:38.619Z,99187.00
2019-03-10T19:19:25.577Z,99192.17
2019-03-10T19:21:52.656Z,99206.03
2019-03-10T19:24:20.061Z,99213.47
2019-03-10T19:26:47.300Z,99212.23
2019-03-10T19:29:14.688Z,99217.03
2019-03-10T19:31:41.755Z,99220.09
2019-03-10T19:34:09.515Z,99228.87
2019-03-10T19:36:37.420Z,99230.95
2019-03-10T19:39:05.627Z,99241.46
2019-03-10T19:41:33.210Z,99254.02
2019-03-10T19:44:21.140Z,99265.44
2019-03-10T19:46:48.858Z,99281.05
2019-03-10T19:49:15.477Z,99296.19
2019-03-10T19:51:42.299Z,99307.00
2019-03-10T19:54:09.449Z,99321.23
2019-03-10T19:56:36.160Z,99330.59
2019-03-10T19:59:02.886Z,99341.55
2019-03-10T20:01:30.170Z,99352.44
2019-03-10T20:03:57.184Z,99370.28
2019-03-10T20:06:23.982Z,99369.66
2019-03-10T20:08:50.827Z,99395.70
2019-03-10T20:11:17.648Z,99412.64
2019-03-10T20:13:44.661Z,99423.97
2019-03-10T20:16:11.484Z,99438.30
2019-03-10T20:18:38.616Z,99445.73
2019-03-10T20:21:05.554Z,99457.43
2019-03-10T20:23:32.338Z,99479.95
2019-03-10T20:25:59.233Z,99483.00
2019-03-10T20:28:26.048Z,99503.83
2019-03-10T20:30:52.836Z,99520.30
2019-03-10T20:33:19.739Z,99543.19
2019-03-10T20:35:59.939Z,99550.57
2019-03-10T20:38:27.287Z,99560.50
2019-03-10T20:40:54.833Z,99572.59
2019-03-10T20:43:22.266Z,99592.48
2019-03-10T20:45:49.265Z,99598.53
2019-03-10T20:48:16.980Z,99616.23
2019-03-10T20:50:44.296Z,99627.89
2019-03-10T20:53:11.626Z,99639.52
2019-03-10T20:55:38.701Z,99654.62
2019-03-10T20:58:06.211Z,99679.23
2019-03-10T21:00:33.014Z,99685.27
2019-03-10T21:02:59.677Z,99693.48
2019-03-10T21:05:27.193Z,99712.05
2019-03-10T21:07:54.145Z,99726.70
2019-03-10T21:10:20.867Z,99744.41
2019-03-10T21:12:47.795Z,99758.22
2019-03-10T21:15:15.879Z,99766.42
2019-03-10T21:17:43.222Z,99778.10
2019-03-10T21:20:51.889Z,99788.45
2019-03-10T21:23:19.302Z,99799.68
2019-03-10T21:25:45.969Z,99814.80
2019-03-10T21:28:12.776Z,99831.66
2019-03-10T21:30:40.140Z,99837.25
2019-03-10T21:33:06.952Z,99840.70
2019-03-10T21:35:33.998Z,99848.91
2019-03-10T21:38:13.849Z,99851.06
2019-03-10T21:40:40.527Z,99863.58
2019-03-10T21:43:07.357Z,99877.81
2019-03-10T21:45:33.970Z,99882.15
2019-03-10T21:48:00.756Z,99884.32
2019-03-10T21:50:27.475Z,99898.11
2019-03-10T21:52:54.190Z,99907.19
2019-03-10T21:55:20.931Z,99915.83
2019-03-10T21:57:47.677Z,99921.45
2019-03-10T22:00:14.535Z,99930.96
2019-03-10T22:02:41.723Z,99944.77
2019-03-10T22:05:09.410Z,99943.05
2019-03-10T22:07:36.128Z,99952.98
2019-03-10T22:10:03.587Z,99963.78
2019-03-10T22:12:30.324Z,99985.83
2019-03-10T22:14:57.044Z,99988.00
2019-03-10T22:17:24.047Z,100000.94
2019-03-10T22:19:50.987Z,99995.34
2019-03-10T22:22:17.699Z,100020.84
2019-03-10T22:24:44.366Z,100018.69
2019-03-10T22:27:11.101Z,100026.01
2019-03-10T22:29:37.833Z,100020.39
2019-03-10T22:32:04.707Z,100034.23
2019-03-10T22:34:31.450Z,100043.73
2019-03-10T22:36:58.538Z,100053.25
2019-03-10T22:39:25.365Z,100059.30
2019-03-10T22:41:52.355Z,100071.84
2019-03-10T22:44:18.967Z,100074.44
2019-03-10T22:46:45.736Z,100080.50
2019-03-10T22:49:12.605Z,100083.95
2019-03-10T22:51:39.665Z,100106.46
2019-03-10T22:54:06.349Z,100112.92
2019-03-10T22:56:32.979Z,100120.28
2019-03-10T22:58:59.717Z,100117.25
2019-03-10T23:01:26.505Z,100117.70
2019-03-10T23:03:53.122Z,100126.77
2019-03-10T23:06:19.731Z,100128.48
2019-03-10T23:08:46.603Z,100137.58
2019-03-10T23:11:13.244Z,100150.13
2019-03-10T23:13:39.862Z,100155.75
2019-03-10T23:16:06.546Z,100158.78
2019-03-10T23:18:33.375Z,100175.23
2019-03-10T23:20:59.994Z,100171.34
2019-03-10T23:23:26.663Z,100176.53
2019-03-10T23:25:53.888Z,100178.27
2019-03-10T23:28:20.610Z,100189.92
2019-03-10T23:30:47.654Z,100183.00
2019-03-10T23:33:14.648Z,100192.10
2019-03-10T23:35:41.899Z,100192.94
2019-03-10T23:38:08.593Z,100190.37
2019-03-10T23:40:48.918Z,100194.25
2019-03-10T23:43:15.711Z,100208.10
2019-03-10T23:45:42.787Z,100199.00
2019-03-10T23:48:09.408Z,100210.70
2019-03-10T23:50:36.065Z,100210.27
2019-03-10T23:53:02.887Z,100210.72
2019-03-10T23:55:29.503Z,100215.05
2019-03-10T23:57:56.282Z,100216.34
